Caldwell, WV (24925)

10:12 AM EDT en Marzo 30, 2015 (GMT -0400)
White Sulphur Harper Street | | Change Station
CLOSE
Current Station
Estación meteorológica personal
Location: White Sulphur Springs, WV
Altura: 1936 ft
Estaciones meteorológicas cercanas

Alt 1936 ft 37.80 °N, 80.28 °W | Updated 1 minute ago

Nublado
Nublado
44.4 ° F
Sensación térmica 41 ° F
N
6.3
Viento Variable Viento desde OSO

Hoy
Alta -- | Baja -- ° F
--% Posibilidad de precipitaciones
Ayer
Alta -- | Baja -- ° F
Precip. -- pul
7:10 AM 7:42 PM
Gibosa creciente, 80% visible
Presión 29.97 pul
Visibilidad 7.0 Millas
Nubes Nubes dispersas 900 ft
Muy nublado 2300 ft
Nublado 3300 ft
Vientos helados 41 ° F
Punto de rocío 40 ° F
Humedad 83%
Precipitaciones 0.00 pul
Espesor de la nieve No disponible.
UV 1 de una escala de 12
Polen 8.10 de una escala de 12
Calidad del aire No disponible.
Flu Activity No disponible.
METAR KLWB 301355Z AUTO 28007G14KT 260V330 7SM SCT009 BKN023 OVC033 07/05 A2997 RMK AO2 T00650045

More Conditions Fewer Conditions

Presión 29.97 pul
Visibilidad 7.0 Millas
Nubes Nubes dispersas 900 ft
Muy nublado 2300 ft
Nublado 3300 ft
Vientos helados 41 ° F
Punto de rocío 40 ° F
Humedad 83%
Precipitaciones 0.00 pul
Espesor de la nieve No disponible.
UV 1 de una escala de 12
Polen 8.10 de una escala de 12
Calidad del aire No disponible.
Flu Activity No disponible.
METAR KLWB 301355Z AUTO 28007G14KT 260V330 7SM SCT009 BKN023 OVC033 07/05 A2997 RMK AO2 T00650045

More Conditions Fewer Conditions

10-Day Weather Forecast

Almanac

Astronomía

Mar. 30, 2015 Salida Puesta
Hora real
Crepúsculo civil
Crepúsculo náutico
Crepúsculo astronómico
Luna
Horas de luz
Horas de luz
Tomorrow will be .
, % of the Moon is Illuminated

Extremos de hoy

Máximos del estado Bajos del estado

Community

WunderPhotos

Upload Photos

1,809,502 ¡fotos cargadas!

WunderBlogs® & News

Nearby

Calidad del aire

  Calidad del aire Índice AQ Contaminante
Not available.

Grosos de nieve

Estación Profundido Altura

Actividad de terremotos

Ciudad Distance Mag. Tiempo y dato
Magnitud mínima muestra es 2,5.

Temperaturas de aguas costeras

Lugar Temperatura

Stations

Estaciones meteorológicas cercanas

Ubicación de la estación Temp. Vientos helados Punto de rocío Humedad Viento Precip. Alt Actualizado Tipo